createdAt,value
2023-01-30T00:00:37.703Z,28.70
2023-01-30T00:03:04.275Z,27.70
2023-01-30T00:05:30.896Z,27.50
2023-01-30T00:07:57.443Z,26.27
2023-01-30T00:10:26.044Z,26.70
2023-01-30T00:12:52.719Z,21.07
2023-01-30T00:15:19.308Z,20.50
2023-01-30T00:17:45.861Z,21.50
2023-01-30T00:20:14.786Z,19.03
2023-01-30T00:22:49.253Z,19.43
2023-01-30T00:25:22.637Z,20.40
2023-01-30T00:27:49.261Z,21.93
2023-01-30T00:30:16.228Z,21.10
2023-01-30T00:32:42.937Z,21.63
2023-01-30T00:35:09.601Z,22.23
2023-01-30T00:37:36.184Z,24.83
2023-01-30T00:40:02.763Z,22.30
2023-01-30T00:42:47.604Z,25.27
2023-01-30T00:45:33.234Z,25.80
2023-01-30T00:48:00.332Z,26.67
2023-01-30T00:50:42.389Z,25.87
2023-01-30T00:53:11.117Z,19.77
2023-01-30T00:55:37.760Z,24.67
2023-01-30T00:58:04.774Z,25.40
2023-01-30T01:00:32.197Z,26.57
2023-01-30T01:02:58.991Z,26.17
2023-01-30T01:05:26.206Z,24.67
2023-01-30T01:07:52.778Z,25.50
2023-01-30T01:10:23.247Z,24.80
2023-01-30T01:12:52.458Z,25.40
2023-01-30T01:15:20.525Z,25.53
2023-01-30T01:17:47.653Z,24.13
2023-01-30T01:20:18.459Z,22.37
2023-01-30T01:22:45.222Z,21.53
2023-01-30T01:25:12.298Z,19.03
2023-01-30T01:27:39.001Z,21.00
2023-01-30T01:30:06.467Z,20.20
2023-01-30T01:32:33.367Z,21.70
2023-01-30T01:35:00.205Z,22.77
2023-01-30T01:37:26.763Z,21.67
2023-01-30T01:40:11.952Z,22.13
2023-01-30T01:42:38.997Z,22.47
2023-01-30T01:45:15.395Z,24.13
2023-01-30T01:47:47.283Z,25.23
2023-01-30T01:50:19.521Z,25.57
2023-01-30T01:52:50.247Z,24.60
2023-01-30T01:55:21.453Z,23.47
2023-01-30T01:57:52.863Z,22.37
2023-01-30T02:00:21.482Z,22.83
2023-01-30T02:02:54.787Z,20.03
2023-01-30T02:05:21.483Z,21.77
2023-01-30T02:07:59.722Z,23.13
2023-01-30T02:10:52.060Z,26.00
2023-01-30T02:13:19.257Z,24.37
2023-01-30T02:15:45.916Z,26.13
2023-01-30T02:18:14.613Z,33.10
2023-01-30T02:21:05.866Z,25.73
2023-01-30T02:23:44.418Z,31.27
2023-01-30T02:26:17.117Z,33.07
2023-01-30T02:28:46.695Z,27.13
2023-01-30T02:31:35.515Z,24.63
2023-01-30T02:34:20.397Z,27.37
2023-01-30T02:37:08.057Z,18.30
2023-01-30T02:39:53.131Z,29.03
2023-01-30T02:42:42.763Z,28.97
2023-01-30T02:45:24.418Z,18.30
2023-01-30T02:47:57.246Z,22.63
2023-01-30T02:50:38.768Z,24.13
2023-01-30T02:53:07.365Z,15.87
2023-01-30T02:55:34.067Z,24.77
2023-01-30T02:58:02.496Z,21.80
2023-01-30T03:00:34.764Z,14.93
2023-01-30T03:03:22.773Z,17.53
2023-01-30T03:06:04.248Z,20.50
2023-01-30T03:09:02.822Z,15.00
2023-01-30T03:11:43.715Z,15.70
2023-01-30T03:14:29.128Z,13.67
2023-01-30T03:16:59.700Z,13.03
2023-01-30T03:19:29.575Z,12.43
2023-01-30T03:21:56.273Z,13.03
2023-01-30T03:24:23.498Z,13.03
2023-01-30T03:27:05.736Z,11.13
2023-01-30T03:29:32.688Z,10.03
2023-01-30T03:31:59.406Z,10.93
2023-01-30T03:34:26.169Z,8.93
2023-01-30T03:36:52.767Z,9.03
2023-01-30T03:39:19.655Z,8.70
2023-01-30T03:41:46.518Z,10.10
2023-01-30T03:44:13.048Z,8.77
2023-01-30T03:46:39.562Z,10.70
2023-01-30T03:49:06.124Z,11.20
2023-01-30T03:51:32.667Z,12.37
2023-01-30T03:53:59.196Z,12.00
2023-01-30T03:56:25.847Z,13.87
2023-01-30T03:58:52.475Z,10.70
2023-01-30T04:01:19.095Z,13.87
2023-01-30T04:03:46.227Z,12.70
2023-01-30T04:06:12.754Z,11.47
2023-01-30T04:08:39.309Z,12.00
2023-01-30T04:11:05.866Z,13.17
2023-01-30T04:13:32.495Z,11.10
2023-01-30T04:16:22.017Z,14.40
2023-01-30T04:18:48.619Z,15.80
2023-01-30T04:21:15.571Z,16.63
2023-01-30T04:23:42.658Z,15.80
2023-01-30T04:26:10.103Z,22.17
2023-01-30T04:28:37.396Z,20.33
2023-01-30T04:31:04.519Z,17.77
2023-01-30T04:33:31.232Z,23.43
2023-01-30T04:35:59.869Z,15.33
2023-01-30T04:38:28.084Z,14.37
2023-01-30T04:40:56.811Z,22.77
2023-01-30T04:43:25.198Z,18.50
2023-01-30T04:45:52.962Z,23.93
2023-01-30T04:48:21.025Z,12.63
2023-01-30T04:50:50.112Z,18.80
2023-01-30T04:53:18.126Z,19.40
2023-01-30T04:55:44.723Z,14.07
2023-01-30T04:58:11.324Z,15.47
2023-01-30T05:00:38.395Z,16.17
2023-01-30T05:03:06.508Z,21.17
2023-01-30T05:05:33.380Z,16.43
2023-01-30T05:08:00.423Z,18.97
2023-01-30T05:10:26.971Z,13.73
2023-01-30T05:12:53.507Z,17.43
2023-01-30T05:15:20.685Z,9.80
2023-01-30T05:17:47.321Z,17.83
2023-01-30T05:20:14.549Z,14.13
2023-01-30T05:22:41.227Z,11.37
2023-01-30T05:25:08.360Z,8.90
2023-01-30T05:27:34.876Z,6.57
2023-01-30T05:30:01.590Z,6.93
2023-01-30T05:32:30.511Z,10.53
2023-01-30T05:34:57.442Z,11.63
2023-01-30T05:37:24.662Z,15.47
2023-01-30T05:39:51.273Z,7.03
2023-01-30T05:42:17.893Z,10.43
2023-01-30T05:44:44.566Z,12.83
2023-01-30T05:47:11.364Z,14.27
2023-01-30T05:49:37.978Z,19.07
2023-01-30T05:52:04.690Z,10.87
2023-01-30T05:54:31.292Z,20.13
2023-01-30T05:56:57.859Z,16.37
2023-01-30T05:59:24.419Z,12.90
2023-01-30T06:01:51.069Z,7.83
2023-01-30T06:04:17.603Z,14.03
2023-01-30T06:06:44.189Z,18.73
2023-01-30T06:09:11.353Z,15.07
2023-01-30T06:11:37.917Z,25.87
2023-01-30T06:14:04.461Z,18.40
2023-01-30T06:16:31.220Z,24.97
2023-01-30T06:18:57.900Z,18.23
2023-01-30T06:21:24.527Z,29.47
2023-01-30T06:23:51.364Z,10.40
2023-01-30T06:26:17.927Z,12.87
2023-01-30T06:28:44.776Z,17.97
2023-01-30T06:31:11.596Z,20.37
2023-01-30T06:33:38.267Z,18.43
2023-01-30T06:36:05.054Z,16.53
2023-01-30T06:38:31.656Z,7.47
2023-01-30T06:40:58.367Z,14.30
2023-01-30T06:43:24.995Z,11.00
2023-01-30T06:45:51.565Z,5.33
2023-01-30T06:48:18.249Z,4.80
2023-01-30T06:50:46.948Z,8.03
2023-01-30T06:53:14.233Z,4.40
2023-01-30T06:55:40.801Z,5.03
2023-01-30T06:58:10.305Z,4.23
2023-01-30T07:00:40.199Z,4.97
2023-01-30T07:03:11.394Z,5.63
2023-01-30T07:05:42.574Z,3.80
2023-01-30T07:08:10.025Z,5.27
2023-01-30T07:10:38.179Z,5.40
2023-01-30T07:13:05.103Z,4.27
2023-01-30T07:15:32.588Z,4.93
2023-01-30T07:18:00.114Z,4.20
2023-01-30T07:20:26.933Z,3.60
2023-01-30T07:22:55.945Z,3.50
2023-01-30T07:25:25.570Z,4.13
2023-01-30T07:27:56.736Z,3.37
2023-01-30T07:30:23.741Z,3.43
2023-01-30T07:32:55.739Z,3.40
2023-01-30T07:35:24.004Z,2.93
2023-01-30T07:37:51.536Z,2.73
2023-01-30T07:40:19.648Z,3.13
2023-01-30T07:43:07.494Z,2.47
2023-01-30T07:45:40.760Z,2.97
2023-01-30T07:48:10.033Z,2.93
2023-01-30T07:50:36.924Z,2.30
2023-01-30T07:53:05.324Z,2.10
2023-01-30T07:55:32.608Z,2.30
2023-01-30T07:57:59.187Z,2.20
2023-01-30T08:00:26.199Z,2.50
2023-01-30T08:02:53.568Z,2.00
2023-01-30T08:05:20.260Z,1.93
2023-01-30T08:07:49.806Z,1.77
2023-01-30T08:10:17.099Z,2.00
2023-01-30T08:12:44.041Z,1.90
2023-01-30T08:15:11.330Z,1.67
2023-01-30T08:17:38.015Z,1.80
2023-01-30T08:20:05.084Z,1.97
2023-01-30T08:22:31.702Z,1.20
2023-01-30T08:24:58.370Z,1.40
2023-01-30T08:27:24.878Z,1.43
2023-01-30T08:29:51.567Z,1.37
2023-01-30T08:32:18.116Z,1.80
2023-01-30T08:34:44.636Z,1.57
2023-01-30T08:37:11.195Z,1.80
2023-01-30T08:39:37.744Z,1.67
2023-01-30T08:57:38.032Z,1.40
2023-01-30T09:00:05.656Z,1.50
2023-01-30T09:02:32.404Z,1.50
2023-01-30T09:04:58.968Z,1.10
2023-01-30T09:07:26.022Z,3.90
2023-01-30T09:09:52.571Z,1.40
2023-01-30T09:12:19.172Z,1.30
2023-01-30T09:14:45.676Z,1.50
2023-01-30T09:17:12.756Z,1.13
2023-01-30T09:19:39.537Z,1.20
2023-01-30T09:22:10.081Z,1.40
2023-01-30T09:24:36.668Z,2.70
2023-01-30T09:27:03.319Z,1.10
2023-01-30T09:29:29.847Z,1.10
2023-01-30T09:31:57.254Z,1.30
2023-01-30T09:34:27.614Z,1.20
2023-01-30T09:37:01.525Z,1.60
2023-01-30T09:39:29.201Z,1.27
2023-01-30T09:42:04.887Z,1.53
2023-01-30T09:44:43.329Z,1.60
2023-01-30T09:47:11.827Z,2.23
2023-01-30T09:50:16.609Z,6.83
2023-01-30T09:53:05.726Z,1.33
2023-01-30T09:55:37.323Z,1.40
2023-01-30T09:58:03.941Z,1.30
2023-01-30T10:00:43.213Z,1.50
2023-01-30T10:03:38.953Z,1.33
2023-01-30T10:06:11.303Z,1.50
2023-01-30T10:09:02.677Z,1.60
2023-01-30T10:11:44.353Z,1.50
2023-01-30T10:14:32.850Z,1.93
2023-01-30T10:17:24.748Z,2.67
2023-01-30T10:20:06.675Z,9.77
2023-01-30T10:22:36.115Z,11.97
2023-01-30T10:25:08.078Z,12.37
2023-01-30T10:27:35.469Z,9.03
2023-01-30T10:30:07.709Z,12.20
2023-01-30T10:33:02.294Z,12.77
2023-01-30T10:35:39.271Z,17.60
2023-01-30T10:38:30.393Z,19.40
2023-01-30T10:41:15.846Z,19.93
2023-01-30T10:44:08.743Z,8.70
2023-01-30T10:46:52.985Z,6.83
2023-01-30T10:49:25.289Z,12.57
2023-01-30T10:52:06.509Z,20.10
2023-01-30T10:54:39.248Z,22.70
2023-01-30T10:57:14.637Z,28.80
2023-01-30T10:59:54.379Z,5.20
2023-01-30T11:02:56.332Z,4.73
2023-01-30T11:05:25.872Z,3.83
2023-01-30T11:07:52.523Z,4.20
2023-01-30T11:10:23.357Z,11.67
2023-01-30T11:13:10.698Z,9.30
2023-01-30T11:15:42.025Z,3.60
2023-01-30T11:18:50.903Z,5.93
2023-01-30T11:21:21.281Z,4.47
2023-01-30T11:23:47.945Z,4.40
2023-01-30T11:26:20.603Z,4.70
2023-01-30T11:28:48.926Z,4.20
2023-01-30T11:31:42.313Z,5.67
2023-01-30T11:34:16.206Z,4.60
2023-01-30T11:36:42.942Z,4.20
2023-01-30T11:39:12.419Z,5.43
2023-01-30T11:42:05.028Z,4.87
2023-01-30T11:44:33.575Z,5.00
2023-01-30T11:47:17.750Z,4.83
2023-01-30T11:50:15.140Z,5.23
2023-01-30T11:52:37.857Z,5.13
2023-01-30T11:55:10.783Z,6.13
2023-01-30T11:57:43.217Z,5.70
2023-01-30T12:00:38.500Z,6.17
2023-01-30T12:03:10.351Z,6.13
2023-01-30T12:05:42.838Z,6.33
2023-01-30T12:08:12.185Z,6.60
2023-01-30T12:10:44.317Z,5.83
2023-01-30T12:13:41.905Z,5.70
2023-01-30T12:16:14.394Z,5.70
2023-01-30T12:19:07.296Z,5.23
2023-01-30T12:21:45.787Z,4.63
2023-01-30T12:24:23.120Z,5.10
2023-01-30T12:27:01.601Z,5.97
2023-01-30T12:29:40.901Z,5.20
2023-01-30T12:32:14.163Z,5.13
2023-01-30T12:34:42.394Z,4.95
2023-01-30T12:37:36.275Z,4.30
2023-01-30T12:40:21.240Z,3.70
2023-01-30T12:43:08.279Z,3.78
2023-01-30T12:45:43.605Z,4.82
2023-01-30T12:48:48.674Z,4.93
2023-01-30T12:51:32.499Z,8.73
2023-01-30T12:54:11.902Z,7.75
2023-01-30T12:56:52.264Z,5.45
2023-01-30T12:59:50.732Z,4.85
2023-01-30T13:02:47.890Z,3.53
2023-01-30T13:05:25.561Z,4.00
2023-01-30T13:08:16.756Z,3.70
2023-01-30T13:11:03.637Z,3.55
2023-01-30T13:13:42.353Z,3.22
2023-01-30T13:16:17.836Z,3.13
2023-01-30T13:18:58.002Z,3.30
2023-01-30T13:21:36.932Z,2.83
2023-01-30T13:24:03.393Z,2.88
2023-01-30T13:26:35.439Z,2.78
2023-01-30T13:29:11.712Z,2.60
2023-01-30T13:31:53.747Z,2.83
2023-01-30T13:34:34.106Z,2.97
2023-01-30T13:37:07.326Z,2.13
2023-01-30T13:39:42.564Z,2.70
2023-01-30T13:42:29.559Z,2.55
2023-01-30T13:44:57.475Z,2.20
2023-01-30T13:47:39.723Z,2.45
2023-01-30T13:50:20.921Z,3.00
2023-01-30T13:52:59.493Z,2.92
2023-01-30T13:55:51.797Z,2.60
2023-01-30T13:58:34.914Z,2.55
2023-01-30T14:01:02.318Z,3.10
2023-01-30T14:03:33.564Z,2.67
2023-01-30T14:06:03.290Z,2.53
2023-01-30T14:08:35.635Z,2.70
2023-01-30T14:11:02.482Z,2.60
2023-01-30T14:13:31.232Z,2.42
2023-01-30T14:16:01.454Z,3.00
2023-01-30T14:18:39.578Z,2.87
2023-01-30T14:21:17.056Z,2.80
2023-01-30T14:23:56.509Z,3.13
2023-01-30T14:26:47.865Z,2.37
2023-01-30T14:29:42.582Z,2.47
2023-01-30T14:32:12.849Z,2.63
2023-01-30T14:35:01.300Z,2.83
2023-01-30T14:37:41.435Z,2.53
2023-01-30T14:40:23.407Z,2.40
2023-01-30T14:43:19.468Z,2.50
2023-01-30T14:45:57.927Z,2.30
2023-01-30T14:48:54.094Z,2.40
2023-01-30T14:51:45.494Z,2.30
2023-01-30T14:54:12.434Z,2.60
2023-01-30T14:56:56.554Z,2.30
2023-01-30T14:59:46.636Z,2.40
2023-01-30T15:02:13.449Z,2.55
2023-01-30T15:04:43.208Z,2.40
2023-01-30T15:07:35.577Z,3.10
2023-01-30T15:10:29.433Z,2.27
2023-01-30T15:12:58.735Z,2.40
2023-01-30T15:15:53.983Z,2.20
2023-01-30T15:18:26.301Z,2.42
2023-01-30T15:21:18.704Z,2.38
2023-01-30T15:24:00.651Z,2.60
2023-01-30T15:26:58.363Z,2.47
2023-01-30T15:29:43.301Z,2.30
2023-01-30T15:32:24.141Z,2.37
2023-01-30T15:34:52.296Z,2.67
2023-01-30T15:37:39.334Z,3.10
2023-01-30T15:40:14.922Z,2.83
2023-01-30T15:43:01.079Z,2.50
2023-01-30T15:45:42.829Z,2.80
2023-01-30T15:48:31.112Z,2.40
2023-01-30T15:51:00.302Z,2.50
2023-01-30T15:53:35.015Z,2.50
2023-01-30T15:56:07.058Z,2.20
2023-01-30T15:58:40.252Z,3.10
2023-01-30T16:01:08.312Z,3.07
2023-01-30T16:03:41.363Z,2.33
2023-01-30T16:06:21.930Z,2.70
2023-01-30T16:09:00.768Z,2.37
2023-01-30T16:11:35.598Z,2.07
2023-01-30T16:14:02.233Z,2.47
2023-01-30T16:16:30.433Z,2.60
2023-01-30T16:19:00.310Z,5.03
2023-01-30T16:21:34.870Z,5.70
2023-01-30T16:24:14.115Z,4.13
2023-01-30T16:26:45.117Z,3.70
2023-01-30T16:29:21.365Z,5.33
2023-01-30T16:31:50.724Z,2.80
2023-01-30T16:34:37.930Z,3.00
2023-01-30T16:37:08.494Z,2.97
2023-01-30T16:39:37.252Z,2.23
2023-01-30T16:42:27.896Z,3.03
2023-01-30T16:45:35.703Z,3.13
2023-01-30T16:48:17.139Z,3.00
2023-01-30T16:50:48.833Z,3.00
2023-01-30T16:53:19.286Z,2.53
2023-01-30T16:56:00.766Z,2.80
2023-01-30T16:58:32.699Z,2.57
2023-01-30T17:01:04.021Z,3.87
2023-01-30T17:03:41.015Z,2.60
2023-01-30T17:06:18.788Z,2.63
2023-01-30T17:09:05.369Z,3.00
2023-01-30T17:11:40.483Z,3.13
2023-01-30T17:14:25.781Z,2.47
2023-01-30T17:17:07.651Z,2.60
2023-01-30T17:19:35.515Z,2.80
2023-01-30T17:22:05.357Z,2.90
2023-01-30T17:24:32.686Z,2.33
2023-01-30T17:27:02.559Z,2.73
2023-01-30T17:29:46.788Z,2.50
2023-01-30T17:32:15.389Z,2.73
2023-01-30T17:34:42.248Z,2.97
2023-01-30T17:37:20.192Z,2.57
2023-01-30T17:39:47.967Z,3.17
2023-01-30T17:42:17.878Z,3.00
2023-01-30T17:44:44.586Z,2.90
2023-01-30T17:47:12.255Z,2.47
2023-01-30T17:49:40.216Z,2.70
2023-01-30T17:52:07.396Z,2.80
2023-01-30T17:54:34.408Z,2.70
2023-01-30T17:57:04.344Z,3.43
2023-01-30T17:59:32.537Z,2.90
2023-01-30T18:01:59.855Z,3.07
2023-01-30T18:04:27.670Z,2.70
2023-01-30T18:07:01.321Z,3.07
2023-01-30T18:09:27.952Z,7.43
2023-01-30T18:11:54.462Z,2.90
2023-01-30T18:14:22.828Z,2.53
2023-01-30T18:16:50.296Z,2.73
2023-01-30T18:19:23.814Z,2.87
2023-01-30T18:21:50.515Z,2.80
2023-01-30T18:24:17.057Z,3.13
2023-01-30T18:26:43.655Z,3.50
2023-01-30T18:29:11.415Z,2.90
2023-01-30T18:31:39.901Z,3.13
2023-01-30T18:34:07.272Z,3.00
2023-01-30T18:36:35.383Z,3.17
2023-01-30T18:39:02.154Z,3.30
2023-01-30T18:41:29.359Z,3.67
2023-01-30T18:43:58.089Z,3.00
2023-01-30T18:46:25.460Z,3.23
2023-01-30T18:48:52.296Z,4.20
2023-01-30T18:51:20.193Z,3.63
2023-01-30T18:53:48.278Z,3.17
2023-01-30T18:56:17.630Z,3.07
2023-01-30T18:58:52.400Z,22.17
2023-01-30T19:01:22.223Z,3.90
2023-01-30T19:03:49.379Z,3.10
2023-01-30T19:06:18.452Z,3.23
2023-01-30T19:08:45.484Z,3.30
2023-01-30T19:11:33.484Z,3.47
2023-01-30T19:14:00.829Z,3.63
2023-01-30T19:16:29.709Z,3.27
2023-01-30T19:18:56.956Z,3.60
2023-01-30T19:21:24.696Z,4.20
2023-01-30T19:23:51.550Z,3.40
2023-01-30T19:26:19.213Z,3.27
2023-01-30T19:28:46.192Z,3.97
2023-01-30T19:31:16.004Z,27.87
2023-01-30T19:33:44.096Z,3.70
2023-01-30T19:36:19.114Z,3.90
2023-01-30T19:38:47.199Z,3.67
2023-01-30T19:41:26.044Z,3.90
2023-01-30T19:43:54.019Z,2.83
2023-01-30T19:46:21.357Z,3.80
2023-01-30T19:48:49.053Z,4.10
2023-01-30T19:51:27.019Z,3.43
2023-01-30T19:53:56.342Z,3.77
2023-01-30T19:56:25.397Z,3.60
2023-01-30T19:58:55.023Z,3.80
2023-01-30T20:01:24.122Z,4.53
2023-01-30T20:03:51.178Z,4.23
2023-01-30T20:06:26.224Z,4.10
2023-01-30T20:09:01.383Z,4.03
2023-01-30T20:11:28.986Z,4.17
2023-01-30T20:13:55.617Z,3.93
2023-01-30T20:16:25.471Z,3.77
2023-01-30T20:19:07.917Z,3.83
2023-01-30T20:21:36.184Z,4.10
2023-01-30T20:24:03.602Z,4.53
2023-01-30T20:26:34.750Z,3.90
2023-01-30T20:29:02.091Z,4.47
2023-01-30T20:31:30.557Z,4.23
2023-01-30T20:33:57.907Z,4.33
2023-01-30T20:36:26.962Z,4.73
2023-01-30T20:38:55.522Z,4.87
2023-01-30T20:41:26.415Z,4.80
2023-01-30T20:43:57.328Z,4.47
2023-01-30T20:46:29.756Z,4.37
2023-01-30T20:48:57.925Z,4.30
2023-01-30T20:51:30.410Z,4.20
2023-01-30T20:54:02.982Z,4.10
2023-01-30T20:56:38.827Z,4.80
2023-01-30T20:59:07.244Z,3.93
2023-01-30T21:01:34.689Z,4.47
2023-01-30T21:04:06.521Z,4.67
2023-01-30T21:06:41.859Z,4.50
2023-01-30T21:09:20.394Z,4.23
2023-01-30T21:11:48.521Z,4.77
2023-01-30T21:14:16.662Z,4.40
2023-01-30T21:16:43.960Z,6.30
2023-01-30T21:19:13.922Z,4.03
2023-01-30T21:21:54.156Z,4.23
2023-01-30T21:24:29.985Z,5.00
2023-01-30T21:26:57.145Z,4.13
2023-01-30T21:29:26.932Z,3.97
2023-01-30T21:31:55.571Z,3.93
2023-01-30T21:34:22.402Z,4.23
2023-01-30T21:37:09.194Z,4.07
2023-01-30T21:39:54.733Z,4.27
2023-01-30T21:42:40.473Z,4.07
2023-01-30T21:45:07.709Z,3.90
2023-01-30T21:47:34.675Z,4.30
2023-01-30T21:50:01.203Z,4.47
2023-01-30T21:52:27.820Z,4.20
2023-01-30T21:54:54.405Z,4.50
2023-01-30T21:57:21.589Z,4.30
2023-01-30T21:59:48.124Z,4.20
2023-01-30T22:02:14.658Z,4.17
2023-01-30T22:04:41.250Z,5.37
2023-01-30T22:07:07.773Z,4.80
2023-01-30T22:09:37.458Z,4.90
2023-01-30T22:12:04.433Z,4.33
2023-01-30T22:14:33.429Z,4.50
2023-01-30T22:16:59.964Z,4.23
2023-01-30T22:19:26.556Z,4.53
2023-01-30T22:21:53.098Z,4.50
2023-01-30T22:24:19.764Z,5.00
2023-01-30T22:26:46.394Z,4.60
2023-01-30T22:29:15.746Z,4.53
2023-01-30T22:31:42.439Z,4.57
2023-01-30T22:34:09.063Z,4.47
2023-01-30T22:36:36.035Z,4.90
2023-01-30T22:39:03.219Z,5.00
2023-01-30T22:41:34.665Z,4.40
2023-01-30T22:44:03.204Z,4.50
2023-01-30T22:46:32.282Z,4.33
2023-01-30T22:49:00.780Z,5.50
2023-01-30T22:51:32.891Z,4.37
2023-01-30T22:54:02.027Z,5.50
2023-01-30T22:56:31.480Z,5.03
2023-01-30T22:58:58.111Z,5.40
2023-01-30T23:01:29.892Z,5.30
2023-01-30T23:03:58.874Z,4.70
2023-01-30T23:06:26.660Z,5.07
2023-01-30T23:08:54.783Z,5.13
2023-01-30T23:11:23.373Z,10.37
2023-01-30T23:13:52.721Z,4.93
2023-01-30T23:16:26.855Z,5.20
2023-01-30T23:18:58.610Z,5.37
2023-01-30T23:21:26.816Z,4.57
2023-01-30T23:23:55.823Z,4.80
2023-01-30T23:26:25.122Z,5.30
2023-01-30T23:28:51.944Z,5.50
2023-01-30T23:31:22.716Z,4.87
2023-01-30T23:33:54.675Z,5.67
2023-01-30T23:36:21.934Z,5.27
2023-01-30T23:38:50.087Z,5.27
2023-01-30T23:41:22.318Z,5.73
2023-01-30T23:43:50.019Z,6.47
2023-01-30T23:46:39.068Z,5.70
2023-01-30T23:49:12.068Z,6.10
2023-01-30T23:51:42.616Z,5.83
2023-01-30T23:54:10.383Z,6.67
2023-01-30T23:56:40.136Z,6.40
2023-01-30T23:59:07.129Z,5.80
